Time;durP1;ratioP1;P1;durP2;ratioP2;P2;SDS_P1;SDS_P2;PMS_P1;PMS_P2;Temp;Humidity;BMP_temperature;BMP_pressure;BME280_temperature;BME280_humidity;BME280_pressure;Samples;Min_cycle;Max_cycle;Signal;HPM_P1;HPM_P2
2023/10/05 00:01:02;;;;;;;10.87;2.67;;;15.50;99.90;;;;;;7288213;19;20195;-89
2023/10/05 00:03:30;;;;;;;12.47;2.77;;;15.40;99.90;;;;;;7284767;19;20200;-90
2023/10/05 00:06:15;;;;;;;9.97;2.87;;;15.40;99.90;;;;;;7290483;19;20194;-90
2023/10/05 00:08:47;;;;;;;9.80;2.70;;;15.30;99.90;;;;;;7189179;19;2004503;-88
2023/10/05 00:11:29;;;;;;;11.43;2.93;;;15.20;99.90;;;;;;7290947;19;20196;-88
2023/10/05 00:14:07;;;;;;;13.97;2.90;;;15.20;99.90;;;;;;7292501;19;20200;-89
2023/10/05 00:16:36;;;;;;;11.30;3.00;;;15.30;99.90;;;;;;7280155;19;20198;-90
2023/10/05 00:19:10;;;;;;;15.90;3.17;;;15.30;99.90;;;;;;7315504;19;20206;-89
2023/10/05 00:21:36;;;;;;;13.50;2.70;;;15.30;99.90;;;;;;7271093;19;20379;-89
2023/10/05 00:24:06;;;;;;;14.63;2.60;;;15.20;99.90;;;;;;7309668;19;20214;-89
2023/10/05 00:26:33;;;;;;;12.90;3.20;;;15.20;99.90;;;;;;7312730;19;20188;-88
2023/10/05 00:31:45;;;;;;;9.50;2.40;;;15.10;99.90;;;;;;7189062;19;2004568;-90
2023/10/05 00:34:29;;;;;;;15.50;2.70;;;15.00;99.90;;;;;;7289820;19;20195;-89
2023/10/05 00:36:59;;;;;;;11.37;2.73;;;14.90;99.90;;;;;;7291039;19;20270;-89
2023/10/05 00:39:29;;;;;;;11.13;2.53;;;14.90;99.90;;;;;;7290137;19;20227;-90
2023/10/05 00:44:34;;;;;;;11.67;2.77;;;14.80;99.90;;;;;;7304916;19;20225;-78
2023/10/05 00:47:06;;;;;;;10.27;2.20;;;14.70;99.90;;;;;;7303356;19;20215;-78
2023/10/05 00:52:24;;;;;;;14.57;2.87;;;14.70;99.90;;;;;;7299826;19;20185;-78
2023/10/05 00:55:12;;;;;;;13.23;2.83;;;14.70;99.90;;;;;;7203894;19;2004415;-78
2023/10/05 00:57:46;;;;;;;13.97;2.80;;;14.80;99.90;;;;;;7306510;19;20189;-79
2023/10/05 01:00:27;;;;;;;13.33;3.40;;;14.80;99.90;;;;;;7302260;19;20211;-80
2023/10/05 01:03:21;;;;;;;13.10;2.90;;;14.70;99.90;;;;;;7300366;19;20851;-78
2023/10/05 01:05:56;;;;;;;12.30;2.70;;;14.80;99.90;;;;;;7199010;19;2004612;-78
2023/10/05 01:08:23;;;;;;;10.67;2.70;;;14.80;99.90;;;;;;7301932;19;20547;-78
2023/10/05 01:11:14;;;;;;;9.30;2.73;;;14.80;99.90;;;;;;7199074;19;2004714;-79
2023/10/05 01:13:41;;;;;;;12.43;2.63;;;14.80;99.90;;;;;;7302307;19;20277;-79
2023/10/05 01:16:19;;;;;;;10.37;2.90;;;14.80;99.90;;;;;;7297350;19;20202;-79
2023/10/05 01:19:07;;;;;;;14.10;2.43;;;14.80;99.90;;;;;;7295775;19;20196;-79
2023/10/05 01:21:36;;;;;;;14.20;2.83;;;14.90;99.90;;;;;;7301758;19;20203;-79
2023/10/05 01:24:04;;;;;;;12.93;2.67;;;14.70;99.90;;;;;;7325242;19;20673;-79
2023/10/05 01:26:37;;;;;;;11.17;2.70;;;14.60;99.90;;;;;;7299911;19;20201;-79
2023/10/05 01:29:03;;;;;;;9.63;2.57;;;14.60;99.90;;;;;;7295008;19;20217;-79
2023/10/05 01:31:30;;;;;;;11.73;2.83;;;14.60;99.90;;;;;;7316455;19;20723;-79
2023/10/05 01:34:01;;;;;;;13.57;2.97;;;14.60;99.90;;;;;;7302270;19;20191;-79
2023/10/05 01:36:28;;;;;;;9.10;2.40;;;14.60;99.90;;;;;;7300727;19;20200;-79
2023/10/05 01:39:08;;;;;;;11.77;2.93;;;14.60;99.90;;;;;;7299418;19;20197;-79
2023/10/05 01:41:33;;;;;;;13.53;2.80;;;14.60;99.90;;;;;;7282860;19;20186;-78
2023/10/05 01:44:02;;;;;;;14.30;2.80;;;14.50;99.90;;;;;;7321325;19;20194;-79
2023/10/05 01:46:31;;;;;;;14.83;2.87;;;14.50;99.90;;;;;;7299419;19;20199;-79
2023/10/05 01:49:13;;;;;;;13.17;2.83;;;14.40;99.90;;;;;;7197424;19;2004559;-79
2023/10/05 01:51:39;;;;;;;13.77;2.80;;;14.50;99.90;;;;;;7298179;19;20190;-79
2023/10/05 01:54:11;;;;;;;13.23;2.97;;;14.50;99.90;;;;;;7303084;19;20211;-80
2023/10/05 01:56:43;;;;;;;10.70;3.10;;;14.50;99.90;;;;;;7299611;19;20211;-79
2023/10/05 01:59:12;;;;;;;14.13;3.10;;;14.40;99.90;;;;;;7298295;19;20706;-79
2023/10/05 02:01:40;;;;;;;8.53;2.90;;;14.50;99.90;;;;;;7298234;19;20192;-79
2023/10/05 02:04:15;;;;;;;11.93;2.80;;;14.50;99.90;;;;;;7297134;19;20198;-79
2023/10/05 02:06:45;;;;;;;10.37;2.83;;;14.50;99.90;;;;;;7296287;19;20262;-79
2023/10/05 02:09:14;;;;;;;9.40;2.50;;;14.50;99.90;;;;;;7300317;19;20181;-78
2023/10/05 02:11:43;;;;;;;9.97;2.97;;;14.50;99.90;;;;;;7298209;19;20182;-79
2023/10/05 02:14:12;;;;;;;11.97;3.40;;;14.50;99.90;;;;;;7299405;19;20189;-79
2023/10/05 02:16:40;;;;;;;10.60;2.80;;;14.60;99.90;;;;;;7297796;19;20190;-79
2023/10/05 02:19:09;;;;;;;13.13;3.07;;;14.60;99.90;;;;;;7299373;19;20214;-78
2023/10/05 02:21:38;;;;;;;11.43;3.20;;;14.60;99.90;;;;;;7293956;19;20190;-79
2023/10/05 02:24:16;;;;;;;11.10;3.10;;;14.70;99.90;;;;;;7310504;19;20190;-79
2023/10/05 02:27:30;;;;;;;12.30;2.90;;;14.70;99.90;;;;;;7298729;19;20544;-79
2023/10/05 02:29:32;;;;;;;16.33;2.83;;;14.80;99.90;;;;;;7299938;19;20189;-79
2023/10/05 02:37:11;;;;;;;12.50;2.93;;;14.90;99.90;;;;;;7276852;19;20195;-78
2023/10/05 02:39:54;;;;;;;12.13;3.20;;;14.90;99.90;;;;;;7300590;19;20186;-79
2023/10/05 02:42:22;;;;;;;10.93;2.77;;;14.80;99.90;;;;;;7296244;19;20210;-79
2023/10/05 02:44:49;;;;;;;11.57;2.80;;;14.80;99.90;;;;;;7300741;19;20225;-79
2023/10/05 02:47:22;;;;;;;11.03;3.20;;;14.90;99.90;;;;;;7287922;19;20187;-79
2023/10/05 02:49:49;;;;;;;14.50;3.13;;;14.80;99.90;;;;;;7300217;19;20266;-79
2023/10/05 02:52:17;;;;;;;15.80;3.23;;;14.80;99.90;;;;;;7297152;19;20672;-80
2023/10/05 02:55:07;;;;;;;12.27;3.13;;;14.70;99.90;;;;;;7300421;19;20189;-77
2023/10/05 02:57:33;;;;;;;14.00;3.50;;;14.90;99.90;;;;;;7294840;19;20554;-77
2023/10/05 03:00:20;;;;;;;12.30;3.37;;;14.90;99.90;;;;;;7408219;19;20154;-78
2023/10/05 03:02:50;;;;;;;13.33;3.10;;;14.90;99.90;;;;;;7413311;19;20243;-79
2023/10/05 03:05:25;;;;;;;10.60;3.03;;;14.90;99.90;;;;;;7413150;19;20139;-78
2023/10/05 03:08:00;;;;;;;13.23;3.33;;;14.80;99.90;;;;;;7407690;19;20145;-81
2023/10/05 03:10:28;;;;;;;11.47;3.40;;;14.90;99.90;;;;;;7413535;19;20147;-79
2023/10/05 03:12:54;;;;;;;13.40;3.27;;;15.00;99.90;;;;;;7413433;19;20152;-78
2023/10/05 03:15:27;;;;;;;16.50;3.70;;;15.00;99.90;;;;;;7412870;19;20151;-78
2023/10/05 03:17:57;;;;;;;15.83;3.47;;;15.00;99.90;;;;;;7402374;19;20896;-79
2023/10/05 03:20:24;;;;;;;9.97;3.43;;;15.00;99.90;;;;;;7402804;19;20167;-78
2023/10/05 03:22:54;;;;;;;11.77;3.27;;;14.90;99.90;;;;;;7410827;19;20132;-78
2023/10/05 03:25:21;;;;;;;13.97;3.20;;;14.80;99.90;;;;;;7413174;19;20568;-78
2023/10/05 03:27:48;;;;;;;12.07;3.87;;;14.80;99.90;;;;;;7366709;19;20202;-79
2023/10/05 03:30:17;;;;;;;10.37;3.30;;;14.90;99.90;;;;;;7302985;19;20185;-78
2023/10/05 03:32:51;;;;;;;12.40;3.30;;;15.00;99.90;;;;;;7299205;19;20254;-79
2023/10/05 03:35:22;;;;;;;11.10;2.87;;;15.00;99.90;;;;;;7297971;19;20198;-79
2023/10/05 03:37:49;;;;;;;11.73;3.70;;;15.00;99.90;;;;;;7292973;19;20553;-79
2023/10/05 03:40:22;;;;;;;13.93;3.40;;;15.00;99.90;;;;;;7299695;19;20182;-79
2023/10/05 03:42:57;;;;;;;9.67;2.83;;;15.00;99.90;;;;;;7297194;19;20193;-78
2023/10/05 03:45:26;;;;;;;13.53;3.30;;;15.00;99.90;;;;;;7299263;19;20184;-79
2023/10/05 03:47:53;;;;;;;10.73;3.40;;;15.00;99.90;;;;;;7297082;19;20195;-78
2023/10/05 03:50:21;;;;;;;12.20;3.33;;;15.00;99.90;;;;;;7299112;19;20192;-78
2023/10/05 03:52:50;;;;;;;12.47;3.33;;;15.10;99.90;;;;;;7300166;19;20600;-78
2023/10/05 03:55:18;;;;;;;13.77;3.37;;;15.20;99.90;;;;;;7299014;19;20213;-78
2023/10/05 03:57:52;;;;;;;11.90;2.90;;;15.20;99.90;;;;;;7303025;19;20193;-78
2023/10/05 04:02:47;;;;;;;11.10;3.17;;;15.20;99.90;;;;;;7301031;19;20194;-78
2023/10/05 04:05:17;;;;;;;9.67;3.03;;;15.10;99.90;;;;;;7302395;19;20192;-78
2023/10/05 04:07:44;;;;;;;14.17;4.03;;;15.10;99.90;;;;;;7300912;19;20186;-78
2023/10/05 04:10:20;;;;;;;12.77;3.50;;;15.00;99.90;;;;;;7304729;19;20181;-78
2023/10/05 04:12:48;;;;;;;12.23;3.80;;;15.00;99.90;;;;;;7303392;19;20188;-78
2023/10/05 04:15:18;;;;;;;13.57;3.40;;;15.10;99.90;;;;;;7300575;19;20253;-77
2023/10/05 04:17:45;;;;;;;13.03;3.50;;;15.20;99.90;;;;;;7303858;19;20181;-78
2023/10/05 04:20:17;;;;;;;14.80;3.23;;;15.20;99.90;;;;;;7300937;19;20194;-79
2023/10/05 04:22:46;;;;;;;14.37;3.67;;;15.10;99.90;;;;;;7304437;19;20186;-79
2023/10/05 04:25:16;;;;;;;15.93;3.73;;;15.20;99.90;;;;;;7304925;19;20210;-78
2023/10/05 04:27:46;;;;;;;14.53;3.17;;;15.20;99.90;;;;;;7301129;19;20210;-78
2023/10/05 04:30:20;;;;;;;17.77;3.67;;;15.10;99.90;;;;;;7299177;19;20189;-79
2023/10/05 04:33:18;;;;;;;15.00;3.40;;;15.10;99.90;;;;;;7296679;19;20235;-79
2023/10/05 04:35:44;;;;;;;10.43;3.03;;;15.20;99.90;;;;;;7197780;19;2004381;-78
2023/10/05 04:38:22;;;;;;;14.70;3.23;;;15.20;99.90;;;;;;7296010;19;20204;-79
2023/10/05 04:41:00;;;;;;;12.07;3.47;;;15.20;99.90;;;;;;7303809;19;20189;-78
2023/10/05 04:43:30;;;;;;;16.57;3.73;;;15.30;99.90;;;;;;7305760;19;20197;-78
2023/10/05 04:46:05;;;;;;;15.17;3.60;;;15.30;99.90;;;;;;7300462;19;20205;-78
2023/10/05 04:48:31;;;;;;;13.70;3.73;;;15.30;99.90;;;;;;7301425;19;20245;-80
2023/10/05 04:51:01;;;;;;;15.13;4.00;;;15.30;99.90;;;;;;7299336;19;20186;-79
2023/10/05 04:53:27;;;;;;;12.57;3.53;;;15.30;99.90;;;;;;7291200;19;20220;-79
2023/10/05 04:56:10;;;;;;;15.83;3.90;;;15.30;99.90;;;;;;7286701;19;20208;-78
2023/10/05 04:58:53;;;;;;;12.73;3.30;;;15.30;99.90;;;;;;7273963;19;20202;-78
2023/10/05 05:01:28;;;;;;;11.43;3.60;;;15.30;99.90;;;;;;7286875;19;20680;-78
2023/10/05 05:04:13;;;;;;;12.63;3.73;;;15.30;99.90;;;;;;7286676;19;20200;-79
2023/10/05 05:06:41;;;;;;;11.03;3.37;;;15.30;99.90;;;;;;7186055;19;2004620;-78
2023/10/05 05:09:12;;;;;;;16.90;4.27;;;15.30;99.90;;;;;;7288155;19;20186;-77
2023/10/05 05:11:40;;;;;;;16.10;3.40;;;15.30;99.90;;;;;;7287066;19;20204;-78
2023/10/05 05:14:07;;;;;;;13.85;4.00;;;15.30;99.90;;;;;;7292006;19;20689;-79
2023/10/05 05:16:35;;;;;;;17.03;3.77;;;15.10;99.90;;;;;;7317504;19;20179;-78
2023/10/05 05:19:02;;;;;;;12.93;4.20;;;15.20;99.90;;;;;;7300414;19;20881;-77
2023/10/05 05:21:29;;;;;;;14.60;3.47;;;15.10;99.90;;;;;;7287294;19;20198;-77
2023/10/05 05:23:58;;;;;;;13.20;3.33;;;15.00;99.90;;;;;;7295605;19;20186;-77
2023/10/05 05:26:24;;;;;;;14.37;3.43;;;15.00;99.90;;;;;;7292030;19;20203;-77
2023/10/05 05:28:49;;;;;;;18.43;4.43;;;14.90;99.90;;;;;;7288250;19;20186;-77
2023/10/05 05:31:16;;;;;;;14.50;3.70;;;14.80;99.90;;;;;;7292478;19;20196;-77
2023/10/05 05:33:44;;;;;;;19.23;4.47;;;14.70;99.90;;;;;;7377337;19;20238;-78
2023/10/05 05:36:12;;;;;;;14.60;3.90;;;14.50;99.90;;;;;;7397756;19;20138;-78
2023/10/05 05:38:39;;;;;;;14.27;4.17;;;14.50;99.90;;;;;;7397912;19;20496;-78
2023/10/05 05:41:15;;;;;;;15.77;4.07;;;14.60;99.90;;;;;;7395297;19;20141;-78
2023/10/05 05:43:44;;;;;;;14.70;4.13;;;14.60;99.90;;;;;;7294418;19;20179;-77
2023/10/05 05:46:13;;;;;;;13.37;3.67;;;14.60;99.90;;;;;;7297950;19;20227;-77
2023/10/05 05:48:42;;;;;;;16.33;4.53;;;14.60;99.90;;;;;;7298785;19;20190;-78
2023/10/05 05:51:14;;;;;;;12.93;4.23;;;14.70;99.90;;;;;;7304548;19;20198;-79
2023/10/05 05:53:47;;;;;;;17.47;4.40;;;14.70;99.90;;;;;;7302234;19;20192;-79
2023/10/05 05:56:19;;;;;;;13.67;4.13;;;14.70;99.90;;;;;;7303968;19;20214;-78
2023/10/05 05:58:55;;;;;;;15.23;3.93;;;14.60;99.90;;;;;;7302898;19;20190;-79
2023/10/05 06:01:24;;;;;;;13.70;4.10;;;14.70;99.90;;;;;;7306704;19;20232;-79
2023/10/05 06:03:51;;;;;;;14.83;4.00;;;14.70;99.90;;;;;;7307283;19;20194;-77
2023/10/05 06:06:26;;;;;;;13.87;3.77;;;14.80;99.90;;;;;;7307649;19;20187;-78
2023/10/05 06:08:56;;;;;;;16.77;4.53;;;14.70;99.90;;;;;;7395469;19;20185;-78
2023/10/05 06:11:51;;;;;;;15.00;4.20;;;14.80;99.90;;;;;;7424845;19;20135;-79
2023/10/05 06:14:22;;;;;;;16.03;4.07;;;14.80;99.90;;;;;;7419387;19;20130;-79
2023/10/05 06:16:53;;;;;;;12.93;4.23;;;14.90;99.90;;;;;;7411339;19;20629;-78
2023/10/05 06:19:20;;;;;;;15.50;4.07;;;14.80;99.90;;;;;;7416782;19;20132;-78
2023/10/05 06:21:49;;;;;;;16.60;4.73;;;14.80;99.90;;;;;;7414120;19;20127;-78
2023/10/05 06:24:29;;;;;;;19.53;4.37;;;14.80;99.90;;;;;;7328630;19;20194;-78
2023/10/05 06:27:00;;;;;;;15.93;4.03;;;14.80;99.90;;;;;;7307140;19;20180;-79
2023/10/05 06:29:27;;;;;;;15.83;3.90;;;14.80;99.90;;;;;;7302015;19;20199;-78
2023/10/05 06:31:55;;;;;;;16.67;4.20;;;14.80;99.90;;;;;;7300067;19;20203;-78
2023/10/05 06:34:22;;;;;;;15.37;4.27;;;14.90;99.90;;;;;;7303255;19;20215;-78
2023/10/05 06:36:51;;;;;;;16.37;3.73;;;15.00;99.90;;;;;;7301580;19;20200;-78
2023/10/05 06:39:16;;;;;;;13.00;3.73;;;15.00;99.90;;;;;;7306940;19;20183;-79
2023/10/05 06:41:42;;;;;;;14.13;3.60;;;15.10;99.90;;;;;;7294821;19;20190;-78
2023/10/05 06:44:10;;;;;;;12.90;3.73;;;15.20;99.90;;;;;;7257985;19;20193;-78
2023/10/05 06:46:42;;;;;;;14.93;4.10;;;15.20;99.90;;;;;;7308243;19;20233;-78
2023/10/05 06:49:09;;;;;;;15.93;4.07;;;15.20;99.90;;;;;;7299107;19;20203;-79
2023/10/05 06:51:39;;;;;;;15.63;3.67;;;15.30;99.90;;;;;;7311607;19;20191;-79
2023/10/05 06:54:11;;;;;;;15.17;4.07;;;15.40;99.90;;;;;;7313275;19;20190;-77
2023/10/05 06:56:37;;;;;;;15.07;3.67;;;15.50;99.90;;;;;;7300007;19;20192;-77
2023/10/05 06:59:07;;;;;;;15.37;3.60;;;15.50;99.90;;;;;;7309249;19;20192;-77
2023/10/05 07:01:34;;;;;;;17.13;3.87;;;15.60;99.90;;;;;;7316575;19;20191;-78
2023/10/05 07:04:01;;;;;;;15.47;3.77;;;15.70;99.90;;;;;;7313785;19;20664;-78
2023/10/05 07:06:32;;;;;;;13.90;3.77;;;15.80;99.90;;;;;;7297736;19;20203;-79
2023/10/05 07:09:00;;;;;;;20.10;3.70;;;15.80;99.90;;;;;;7299509;19;20191;-79
2023/10/05 07:11:25;;;;;;;13.27;3.23;;;15.80;99.90;;;;;;7301734;19;20229;-78
2023/10/05 07:13:52;;;;;;;15.00;3.60;;;15.80;99.90;;;;;;7283731;19;20196;-79
2023/10/05 07:16:20;;;;;;;12.03;3.20;;;15.80;99.90;;;;;;7304351;19;20217;-78
2023/10/05 07:18:46;;;;;;;15.37;3.70;;;15.80;99.90;;;;;;7326100;19;20180;-79
2023/10/05 07:21:15;;;;;;;12.60;3.30;;;15.90;99.90;;;;;;7301561;19;20254;-78
2023/10/05 07:23:42;;;;;;;15.17;3.67;;;15.90;99.90;;;;;;7346575;19;20198;-78
2023/10/05 07:26:11;;;;;;;13.30;3.23;;;15.90;99.90;;;;;;7269207;19;20195;-80
2023/10/05 07:28:39;;;;;;;14.07;3.87;;;15.90;99.90;;;;;;7304578;19;20213;-77
2023/10/05 07:31:09;;;;;;;12.90;3.30;;;16.00;99.90;;;;;;7303314;19;20200;-77
2023/10/05 07:33:36;;;;;;;14.47;3.40;;;16.00;99.90;;;;;;7324439;19;20188;-77
2023/10/05 07:36:03;;;;;;;14.23;3.97;;;16.10;99.90;;;;;;7297802;19;20191;-79
2023/10/05 07:38:33;;;;;;;17.77;3.43;;;16.00;99.90;;;;;;7304818;19;20181;-78
2023/10/05 07:41:03;;;;;;;13.93;3.50;;;16.00;99.90;;;;;;7301930;19;20189;-79
2023/10/05 07:43:29;;;;;;;14.57;3.33;;;16.00;99.90;;;;;;7301820;19;20271;-77
2023/10/05 07:45:56;;;;;;;15.50;3.53;;;16.00;99.90;;;;;;7301450;19;20194;-80
2023/10/05 07:48:24;;;;;;;11.30;3.40;;;16.00;99.90;;;;;;7325609;19;20195;-78
2023/10/05 07:51:13;;;;;;;12.17;3.70;;;15.90;99.90;;;;;;7299308;19;20179;-79
2023/10/05 07:53:42;;;;;;;12.30;4.10;;;15.90;99.90;;;;;;7300119;19;20690;-79
2023/10/05 07:56:08;;;;;;;13.10;3.70;;;15.90;99.90;;;;;;7306201;19;20185;-77
2023/10/05 07:58:34;;;;;;;13.60;3.53;;;15.90;99.90;;;;;;7321344;19;20191;-78
2023/10/05 08:01:03;;;;;;;14.07;3.67;;;15.90;99.90;;;;;;7315335;19;20199;-78
2023/10/05 08:03:35;;;;;;;16.50;3.67;;;15.90;99.90;;;;;;7302893;19;20193;-79
2023/10/05 08:06:01;;;;;;;14.57;4.00;;;15.90;99.90;;;;;;7322830;19;20210;-79
2023/10/05 08:08:27;;;;;;;15.03;3.80;;;15.90;99.90;;;;;;7299067;19;20205;-79
2023/10/05 08:10:53;;;;;;;13.63;3.50;;;16.00;99.90;;;;;;7301479;19;20184;-79
2023/10/05 08:13:19;;;;;;;21.37;4.53;;;16.10;99.90;;;;;;7303235;19;20544;-78
2023/10/05 08:15:46;;;;;;;11.97;3.63;;;16.10;99.90;;;;;;7297576;19;20188;-78
2023/10/05 08:18:11;;;;;;;18.53;3.50;;;16.30;99.90;;;;;;7300951;19;20186;-78
2023/10/05 08:20:37;;;;;;;15.60;3.93;;;16.40;99.90;;;;;;7301465;19;20229;-77
2023/10/05 08:23:06;;;;;;;15.20;4.00;;;16.50;99.90;;;;;;7318054;19;20192;-79
2023/10/05 08:25:31;;;;;;;18.37;3.87;;;16.50;99.90;;;;;;7270645;19;20216;-79
2023/10/05 08:28:03;;;;;;;11.10;3.10;;;16.60;99.90;;;;;;7274183;19;20189;-78
2023/10/05 08:31:04;;;;;;;17.80;3.33;;;16.70;99.90;;;;;;7205746;19;2004559;-78
2023/10/05 08:33:27;;;;;;;12.27;3.50;;;16.60;99.90;;;;;;7327861;19;20187;-78
2023/10/05 08:35:53;;;;;;;18.37;3.87;;;16.50;99.90;;;;;;7308562;19;20252;-79
2023/10/05 08:38:19;;;;;;;16.47;3.60;;;16.60;99.90;;;;;;7308140;19;20195;-78
2023/10/05 08:40:52;;;;;;;11.30;3.23;;;16.60;99.90;;;;;;7307856;19;20220;-79
2023/10/05 08:43:19;;;;;;;10.10;3.37;;;16.70;99.90;;;;;;7307013;19;20193;-78
2023/10/05 08:45:51;;;;;;;14.50;3.30;;;16.70;99.90;;;;;;7309162;19;20229;-77
2023/10/05 08:48:30;;;;;;;17.23;3.47;;;16.60;99.90;;;;;;7330750;19;20181;-78
2023/10/05 08:51:12;;;;;;;13.57;3.20;;;16.70;99.90;;;;;;7307010;19;20255;-78
2023/10/05 08:53:48;;;;;;;13.23;3.30;;;16.90;99.90;;;;;;7284063;19;20194;-79
2023/10/05 08:56:25;;;;;;;14.63;3.73;;;16.90;99.90;;;;;;7306058;19;20195;-79
2023/10/05 08:58:53;;;;;;;14.17;3.70;;;17.00;99.90;;;;;;7299462;19;20595;-79
2023/10/05 09:01:59;;;;;;;16.23;4.00;;;17.20;99.90;;;;;;7308262;19;20199;-78
2023/10/05 09:04:43;;;;;;;16.37;3.60;;;17.10;99.90;;;;;;7202093;19;2006281;-77
2023/10/05 09:07:38;;;;;;;13.73;3.67;;;17.10;99.90;;;;;;7278738;19;20252;-79
2023/10/05 09:10:06;;;;;;;16.87;3.67;;;17.10;99.90;;;;;;7305999;19;21007;-79
2023/10/05 09:12:34;;;;;;;16.93;4.23;;;17.20;99.90;;;;;;7298070;19;20243;-78
2023/10/05 09:20:38;;;;;;;12.40;4.03;;;17.30;99.90;;;;;;7328753;19;20192;-79
2023/10/05 09:23:06;;;;;;;10.17;3.00;;;17.40;99.90;;;;;;7299884;19;20193;-78
2023/10/05 09:25:53;;;;;;;14.17;3.83;;;17.40;99.90;;;;;;7325178;19;20207;-78
2023/10/05 09:29:12;;;;;;;15.83;3.67;;;17.40;99.90;;;;;;7302937;19;20213;-79
2023/10/05 09:31:41;;;;;;;16.20;3.97;;;17.40;99.90;;;;;;7195835;19;2004688;-79
2023/10/05 09:34:14;;;;;;;18.30;3.80;;;17.40;99.90;;;;;;7279198;19;20287;-79
2023/10/05 09:36:40;;;;;;;14.07;3.53;;;17.50;99.90;;;;;;7300603;19;20192;-78
2023/10/05 09:39:10;;;;;;;16.60;3.73;;;17.50;99.90;;;;;;7269853;19;20215;-78
2023/10/05 09:41:38;;;;;;;12.80;3.23;;;17.50;99.90;;;;;;7299959;19;20196;-77
2023/10/05 09:44:10;;;;;;;13.47;3.67;;;17.60;99.90;;;;;;7323311;19;20189;-78
2023/10/05 09:46:37;;;;;;;13.73;3.10;;;17.60;99.90;;;;;;7277883;19;20181;-79
2023/10/05 09:49:06;;;;;;;15.97;4.30;;;17.80;99.90;;;;;;7323769;19;20293;-78
2023/10/05 09:51:35;;;;;;;14.57;3.67;;;17.80;99.90;;;;;;7302403;19;20200;-80
2023/10/05 09:54:03;;;;;;;9.83;3.40;;;18.00;99.90;;;;;;7305061;19;20275;-79
2023/10/05 09:56:29;;;;;;;15.70;3.40;;;18.20;99.90;;;;;;7300020;19;20189;-78
2023/10/05 09:58:59;;;;;;;13.90;3.40;;;18.30;99.90;;;;;;7296093;19;20652;-78
2023/10/05 10:01:49;;;;;;;13.03;3.67;;;18.40;99.90;;;;;;7195552;19;2005019;-78
2023/10/05 10:04:35;;;;;;;20.10;3.87;;;18.50;99.90;;;;;;7287444;19;20234;-79
2023/10/05 10:07:08;;;;;;;16.17;3.43;;;18.60;99.90;;;;;;7295021;19;20191;-78
2023/10/05 10:09:35;;;;;;;12.83;3.80;;;18.60;99.90;;;;;;7292054;19;20269;-79
2023/10/05 10:12:09;;;;;;;12.77;3.57;;;18.60;99.90;;;;;;7287319;19;20221;-79
2023/10/05 10:14:35;;;;;;;14.27;3.57;;;18.50;99.90;;;;;;7282577;19;20189;-78
2023/10/05 10:17:08;;;;;;;16.97;3.53;;;18.60;99.90;;;;;;7316650;19;20236;-78
2023/10/05 10:19:45;;;;;;;10.67;3.30;;;18.70;99.90;;;;;;7294239;19;20206;-78
2023/10/05 10:22:14;;;;;;;13.10;3.60;;;18.80;99.90;;;;;;7191218;19;2005198;-79
2023/10/05 10:24:40;;;;;;;17.40;4.10;;;19.10;99.90;;;;;;7296271;19;20191;-77
2023/10/05 10:27:08;;;;;;;12.33;3.73;;;19.40;99.90;;;;;;7309369;19;20217;-79
2023/10/05 10:29:53;;;;;;;12.37;3.50;;;19.50;99.90;;;;;;7292329;19;20235;-79
2023/10/05 10:32:31;;;;;;;9.37;3.50;;;19.70;99.90;;;;;;7291814;19;20193;-80
2023/10/05 10:35:10;;;;;;;12.07;3.20;;;20.00;99.90;;;;;;7294794;19;20243;-80
2023/10/05 10:37:44;;;;;;;15.70;3.77;;;20.20;99.90;;;;;;7278589;19;20197;-79
2023/10/05 10:45:42;;;;;;;14.47;3.27;;;20.70;99.90;;;;;;7293709;19;20187;-78
2023/10/05 10:48:15;;;;;;;13.83;3.53;;;21.00;99.90;;;;;;7270450;19;20195;-79
2023/10/05 10:50:42;;;;;;;14.70;3.50;;;21.40;99.90;;;;;;7298201;19;20186;-79
2023/10/05 10:53:16;;;;;;;15.43;4.00;;;21.60;99.90;;;;;;7295406;19;20211;-78
2023/10/05 10:56:17;;;;;;;12.53;3.73;;;21.70;99.90;;;;;;7297396;19;20199;-80
2023/10/05 10:58:44;;;;;;;14.43;3.23;;;22.00;99.90;;;;;;7194071;19;2004625;-79
2023/10/05 11:04:04;;;;;;;16.53;3.40;;;22.10;99.90;;;;;;7296062;19;20233;-80
2023/10/05 11:06:30;;;;;;;13.83;2.80;;;22.20;99.90;;;;;;7294364;19;20187;-79
2023/10/05 11:09:09;;;;;;;14.40;3.23;;;22.40;99.90;;;;;;7292572;19;20192;-80
2023/10/05 11:11:37;;;;;;;11.73;3.07;;;22.30;99.90;;;;;;7289504;19;20191;-79
2023/10/05 11:14:05;;;;;;;14.83;3.30;;;22.40;99.90;;;;;;7316319;19;20201;-79
2023/10/05 11:16:43;;;;;;;15.00;3.07;;;22.30;99.90;;;;;;7298259;19;20630;-78
2023/10/05 11:19:13;;;;;;;10.90;2.90;;;22.40;99.90;;;;;;7272738;19;20194;-79
2023/10/05 11:21:45;;;;;;;16.80;3.47;;;22.70;99.90;;;;;;7293360;19;20570;-79
2023/10/05 11:24:15;;;;;;;13.27;3.40;;;23.10;99.90;;;;;;7297355;19;20192;-80
2023/10/05 11:29:33;;;;;;;14.33;3.47;;;24.30;99.90;;;;;;7291271;19;20578;-77
2023/10/05 11:32:03;;;;;;;15.30;3.00;;;24.90;99.90;;;;;;7294511;19;20201;-78
2023/10/05 11:34:39;;;;;;;10.33;2.77;;;24.80;99.90;;;;;;7295142;19;20193;-79
2023/10/05 11:37:18;;;;;;;10.47;2.80;;;24.70;99.90;;;;;;7292859;19;20232;-78
2023/10/05 11:39:53;;;;;;;14.33;2.80;;;24.60;99.90;;;;;;7295689;19;20193;-78
2023/10/05 11:42:26;;;;;;;10.65;2.92;;;24.60;99.90;;;;;;7300011;19;20192;-79
2023/10/05 11:45:13;;;;;;;11.87;3.03;;;24.40;99.90;;;;;;7300666;19;20200;-80
2023/10/05 11:47:52;;;;;;;11.17;2.73;;;24.30;99.90;;;;;;7202772;19;2004539;-78
2023/10/05 11:50:32;;;;;;;11.67;2.97;;;24.10;99.90;;;;;;7303929;19;20200;-79
2023/10/05 11:53:11;;;;;;;8.10;2.43;;;24.10;99.90;;;;;;7305545;19;20214;-79
2023/10/05 11:55:40;;;;;;;10.10;2.60;;;24.20;99.90;;;;;;7282454;19;20222;-79
2023/10/05 11:58:08;;;;;;;11.10;2.57;;;24.10;99.90;;;;;;7303556;19;20200;-80
2023/10/05 12:00:35;;;;;;;11.17;2.83;;;24.20;99.90;;;;;;7325161;19;20203;-78
2023/10/05 12:03:03;;;;;;;12.93;2.83;;;24.00;99.90;;;;;;7324094;19;20662;-79
2023/10/05 12:05:34;;;;;;;15.03;3.20;;;24.20;99.90;;;;;;7310788;19;20197;-78
2023/10/05 12:08:04;;;;;;;9.83;2.53;;;24.30;99.90;;;;;;7308221;19;20658;-79
2023/10/05 12:10:40;;;;;;;10.20;2.50;;;24.60;99.90;;;;;;7312188;19;20200;-79
2023/10/05 12:13:09;;;;;;;10.75;2.50;;;24.90;99.90;;;;;;7290102;19;20188;-79
2023/10/05 12:15:37;;;;;;;9.77;2.20;;;25.00;99.90;;;;;;7327781;19;20212;-78
2023/10/05 12:18:12;;;;;;;9.53;2.30;;;24.80;99.90;;;;;;7306037;19;20282;-80
2023/10/05 12:20:41;;;;;;;10.52;2.40;;;24.80;99.90;;;;;;7290414;19;20184;-78
2023/10/05 12:23:08;;;;;;;9.03;2.30;;;24.60;99.90;;;;;;7310741;19;20192;-78
2023/10/05 12:25:36;;;;;;;12.20;2.47;;;24.60;99.90;;;;;;7335972;19;20181;-79
2023/10/05 12:28:08;;;;;;;11.93;2.63;;;24.70;99.90;;;;;;7313463;19;20226;-79
2023/10/05 12:30:44;;;;;;;12.53;2.10;;;24.60;99.90;;;;;;7207645;19;2004661;-80
2023/10/05 12:33:15;;;;;;;9.73;1.90;;;24.80;99.90;;;;;;7310531;19;20191;-79
2023/10/05 12:35:44;;;;;;;10.38;2.10;;;25.30;99.90;;;;;;7309098;19;20187;-78
2023/10/05 12:38:30;;;;;;;9.53;2.23;;;26.10;99.90;;;;;;7310367;19;20197;-79
2023/10/05 12:41:12;;;;;;;9.25;2.08;;;26.40;99.90;;;;;;7308436;19;20196;-80
2023/10/05 12:43:42;;;;;;;8.13;2.00;;;26.70;99.90;;;;;;7287170;19;20180;-79
2023/10/05 12:46:10;;;;;;;8.85;1.95;;;27.10;99.90;;;;;;7310080;19;20249;-79
2023/10/05 12:48:40;;;;;;;7.82;1.67;;;26.70;99.90;;;;;;7312061;19;20575;-78
2023/10/05 12:51:08;;;;;;;7.95;1.77;;;26.70;99.90;;;;;;7313039;19;20185;-78
2023/10/05 12:53:37;;;;;;;7.65;1.70;;;26.70;99.90;;;;;;7331917;19;20185;-80
2023/10/05 12:56:23;;;;;;;8.27;1.88;;;26.30;99.90;;;;;;7209396;19;2004555;-79
2023/10/05 12:58:49;;;;;;;6.75;1.80;;;25.80;99.90;;;;;;7310496;19;20188;-79
2023/10/05 13:01:17;;;;;;;7.47;1.80;;;25.30;99.90;;;;;;7308692;19;20197;-77
2023/10/05 13:03:44;;;;;;;7.73;1.90;;;24.90;99.90;;;;;;7308839;19;20177;-77
2023/10/05 13:06:10;;;;;;;7.93;1.80;;;24.10;99.90;;;;;;7311125;19;20212;-77
2023/10/05 13:08:43;;;;;;;9.73;1.80;;;24.00;99.90;;;;;;7318615;19;20205;-78
2023/10/05 13:11:19;;;;;;;9.50;1.63;;;24.00;99.90;;;;;;7304621;19;20185;-78
2023/10/05 13:13:50;;;;;;;8.97;1.93;;;23.80;99.90;;;;;;7309119;19;21078;-79
2023/10/05 13:16:38;;;;;;;9.90;2.03;;;23.40;99.90;;;;;;7285195;19;20214;-79
2023/10/05 13:19:09;;;;;;;6.83;1.73;;;23.10;99.90;;;;;;7330349;19;20815;-79
2023/10/05 13:21:42;;;;;;;7.97;2.00;;;22.80;99.90;;;;;;6799933;19;20943;-77
2023/10/05 13:24:11;;;;;;;8.20;1.90;;;22.20;99.90;;;;;;7307760;19;20181;-78
2023/10/05 13:26:44;;;;;;;10.27;2.20;;;22.10;99.90;;;;;;7306978;19;20232;-78
2023/10/05 13:29:17;;;;;;;9.23;1.97;;;22.00;99.90;;;;;;7308665;19;20205;-79
2023/10/05 13:31:46;;;;;;;9.50;1.60;;;22.10;99.90;;;;;;7309060;19;20201;-79
2023/10/05 13:34:16;;;;;;;9.10;2.03;;;22.30;99.90;;;;;;7299965;19;20192;-79